Time;durP1;ratioP1;P1;durP2;ratioP2;P2;SDS_P1;SDS_P2;PMS_P1;PMS_P2;Temp;Humidity;BMP_temperature;BMP_pressure;BME280_temperature;BME280_humidity;BME280_pressure;Samples;Min_cycle;Max_cycle;Signal;HPM_P1;HPM_P2
2022/01/27 00:02:11;;;;;;;39.17;16.60;;;6.50;99.90;;;;;;5031418;28;20080;-73
2022/01/27 00:04:42;;;;;;;35.00;15.60;;;6.50;99.90;;;;;;5021378;28;20165;-73
2022/01/27 00:07:08;;;;;;;32.75;15.25;;;6.50;99.90;;;;;;5016688;28;20372;-73
2022/01/27 00:10:02;;;;;;;35.40;15.32;;;6.50;99.90;;;;;;5021658;28;20099;-73
2022/01/27 00:12:27;;;;;;;33.03;15.20;;;6.50;99.90;;;;;;5015109;28;20036;-73
2022/01/27 00:15:07;;;;;;;32.72;15.40;;;6.50;99.90;;;;;;5014260;28;20507;-73
2022/01/27 00:17:38;;;;;;;34.03;15.65;;;6.50;99.90;;;;;;5013540;28;20250;-73
2022/01/27 00:20:04;;;;;;;33.28;16.42;;;6.50;99.90;;;;;;5013877;28;20056;-73
2022/01/27 00:22:30;;;;;;;42.53;16.73;;;6.50;99.90;;;;;;5013032;28;20436;-74
2022/01/27 00:24:55;;;;;;;44.60;18.15;;;6.50;99.90;;;;;;5014304;28;20050;-73
2022/01/27 00:27:21;;;;;;;44.55;18.52;;;6.60;99.90;;;;;;5030718;28;20037;-74
2022/01/27 00:29:46;;;;;;;42.33;18.52;;;6.60;99.90;;;;;;5013149;28;20046;-73
2022/01/27 00:32:12;;;;;;;41.15;19.17;;;6.70;99.90;;;;;;5028444;28;20282;-73
2022/01/27 00:34:37;;;;;;;41.75;18.65;;;6.70;99.90;;;;;;5031351;28;20030;-73
2022/01/27 00:37:03;;;;;;;41.60;18.92;;;6.80;99.90;;;;;;5026426;28;20068;-73
2022/01/27 00:39:29;;;;;;;37.33;19.42;;;6.70;99.90;;;;;;5024611;28;20025;-73
2022/01/27 00:41:54;;;;;;;43.30;19.63;;;6.80;99.90;;;;;;5017524;28;20022;-74
2022/01/27 00:44:20;;;;;;;37.40;18.95;;;6.80;99.90;;;;;;5031043;28;20029;-73
2022/01/27 00:46:45;;;;;;;41.72;19.13;;;6.80;99.90;;;;;;5028099;28;20038;-73
2022/01/27 00:49:11;;;;;;;48.10;19.63;;;6.80;99.90;;;;;;5028664;28;20090;-73
2022/01/27 00:51:39;;;;;;;36.63;18.60;;;6.80;99.90;;;;;;5022717;28;20028;-73
2022/01/27 00:54:15;;;;;;;44.53;20.10;;;6.80;99.90;;;;;;5013923;28;20030;-73
2022/01/27 00:56:49;;;;;;;43.65;18.88;;;6.80;99.90;;;;;;5012771;28;20069;-73
2022/01/27 01:02:28;;;;;;;38.85;19.10;;;6.80;99.90;;;;;;5016721;28;20506;-73
2022/01/27 01:05:13;;;;;;;42.38;19.52;;;6.90;99.90;;;;;;5023831;28;20556;-73
2022/01/27 01:07:41;;;;;;;48.22;20.58;;;6.90;99.90;;;;;;5013741;28;20486;-73
2022/01/27 01:15:37;;;;;;;47.92;20.20;;;6.80;99.90;;;;;;5031864;28;20083;-74
2022/01/27 01:31:43;;;;;;;45.90;20.15;;;6.70;99.90;;;;;;5027374;28;20485;-74
2022/01/27 01:36:47;;;;;;;45.10;20.08;;;6.70;99.90;;;;;;5031206;28;20023;-74
2022/01/27 01:39:13;;;;;;;43.00;20.73;;;6.60;99.90;;;;;;5031006;28;20036;-74
2022/01/27 01:41:41;;;;;;;46.35;20.58;;;6.60;99.90;;;;;;5024155;28;20425;-74
2022/01/27 01:44:06;;;;;;;42.03;19.27;;;6.60;99.90;;;;;;5026414;28;20032;-74
2022/01/27 01:46:33;;;;;;;45.30;20.42;;;6.60;99.90;;;;;;5026207;28;20025;-74
2022/01/27 01:48:59;;;;;;;39.85;19.90;;;6.50;99.90;;;;;;5017756;28;20026;-73
2022/01/27 01:51:29;;;;;;;43.67;20.55;;;6.50;99.90;;;;;;5012011;28;20032;-74
2022/01/27 01:53:55;;;;;;;47.50;19.70;;;6.50;99.90;;;;;;5026860;28;20396;-73
2022/01/27 01:56:22;;;;;;;46.03;20.85;;;6.40;99.90;;;;;;5030453;28;20026;-74
2022/01/27 01:58:47;;;;;;;42.53;19.55;;;6.30;99.90;;;;;;5008204;28;20041;-73
2022/01/27 02:01:13;;;;;;;45.40;21.05;;;6.30;99.90;;;;;;5012097;28;20484;-73
2022/01/27 02:03:39;;;;;;;48.05;21.25;;;6.30;99.90;;;;;;5011830;28;20109;-74
2022/01/27 02:06:05;;;;;;;49.65;20.73;;;6.30;99.90;;;;;;5011570;28;20030;-73
2022/01/27 02:08:41;;;;;;;45.92;19.80;;;6.20;99.90;;;;;;5011658;28;20061;-73
2022/01/27 02:19:20;;;;;;;49.97;20.27;;;6.20;99.90;;;;;;5017867;28;20102;-73
2022/01/27 02:21:59;;;;;;;45.83;18.85;;;6.10;99.90;;;;;;5029841;28;20040;-73
2022/01/27 02:24:28;;;;;;;52.30;19.23;;;6.20;99.90;;;;;;5029511;28;20036;-73
2022/01/27 02:26:54;;;;;;;44.78;19.73;;;6.10;99.90;;;;;;5028615;28;20037;-73
2022/01/27 02:29:21;;;;;;;41.85;18.85;;;6.20;99.90;;;;;;5017308;28;20037;-73
2022/01/27 02:31:49;;;;;;;39.90;18.25;;;6.20;99.90;;;;;;5021696;28;20026;-74
2022/01/27 02:34:14;;;;;;;44.67;18.30;;;6.20;99.90;;;;;;4999512;28;20045;-73
2022/01/27 02:36:40;;;;;;;40.92;18.27;;;6.20;99.90;;;;;;5030539;28;20029;-73
2022/01/27 02:39:08;;;;;;;42.90;17.55;;;6.20;99.90;;;;;;5031057;28;20401;-73
2022/01/27 02:41:50;;;;;;;44.38;17.65;;;6.20;99.90;;;;;;5030887;28;20040;-73
2022/01/27 02:44:32;;;;;;;38.35;16.95;;;6.20;99.90;;;;;;5025689;28;20104;-73
2022/01/27 02:46:58;;;;;;;43.50;16.13;;;6.20;99.90;;;;;;5001986;28;20048;-73
2022/01/27 02:49:24;;;;;;;39.70;16.20;;;6.20;99.90;;;;;;5030168;28;20071;-73
2022/01/27 02:51:50;;;;;;;43.85;16.23;;;6.30;99.90;;;;;;5014369;28;20029;-73
2022/01/27 02:54:15;;;;;;;37.88;15.52;;;6.30;99.90;;;;;;5017461;28;20025;-73
2022/01/27 02:56:46;;;;;;;36.25;14.75;;;6.30;99.90;;;;;;5029888;28;20541;-73
2022/01/27 02:59:16;;;;;;;37.85;14.75;;;6.30;99.90;;;;;;5030278;28;20025;-73
2022/01/27 03:01:46;;;;;;;39.88;14.30;;;6.30;99.90;;;;;;5029322;28;20124;-74
2022/01/27 03:04:11;;;;;;;36.13;13.95;;;6.40;99.90;;;;;;5028537;28;20022;-73
2022/01/27 03:06:37;;;;;;;32.85;13.18;;;6.50;99.90;;;;;;5030237;28;20425;-73
2022/01/27 03:09:03;;;;;;;41.30;14.80;;;6.50;99.90;;;;;;5028256;28;20034;-74
2022/01/27 03:11:50;;;;;;;34.35;13.32;;;6.50;99.90;;;;;;5020329;28;20501;-73
2022/01/27 03:14:21;;;;;;;34.88;12.25;;;6.50;99.90;;;;;;5006411;28;20041;-73
2022/01/27 03:16:48;;;;;;;30.25;12.43;;;6.50;99.90;;;;;;5021424;28;20041;-74
2022/01/27 03:19:14;;;;;;;34.08;12.75;;;6.50;99.90;;;;;;5029338;28;20040;-74
2022/01/27 03:21:40;;;;;;;31.88;12.82;;;6.50;99.90;;;;;;5029802;28;20030;-73
2022/01/27 03:24:06;;;;;;;31.67;12.73;;;6.50;99.90;;;;;;5015087;28;20057;-74
2022/01/27 03:26:31;;;;;;;30.40;12.65;;;6.50;99.90;;;;;;5028533;28;20072;-73
2022/01/27 03:28:58;;;;;;;34.78;12.93;;;6.50;99.90;;;;;;5013473;28;20036;-73
2022/01/27 03:31:24;;;;;;;33.58;12.20;;;6.40;99.90;;;;;;5011284;28;20289;-73
2022/01/27 03:33:50;;;;;;;36.83;13.32;;;6.40;99.90;;;;;;5011116;28;20470;-74
2022/01/27 03:36:17;;;;;;;33.55;13.18;;;6.40;99.90;;;;;;5020019;28;20092;-73
2022/01/27 03:38:43;;;;;;;38.78;13.20;;;6.40;99.90;;;;;;5029656;28;20053;-74
2022/01/27 03:41:10;;;;;;;35.83;13.15;;;6.40;99.90;;;;;;5014227;28;20365;-74
2022/01/27 03:43:38;;;;;;;37.05;13.52;;;6.40;99.90;;;;;;5014962;28;20030;-73
2022/01/27 03:46:05;;;;;;;32.85;13.45;;;6.40;99.90;;;;;;5013718;28;20025;-73
2022/01/27 03:48:31;;;;;;;31.77;12.90;;;6.40;99.90;;;;;;5017654;28;20117;-73
2022/01/27 03:50:56;;;;;;;35.90;13.35;;;6.40;99.90;;;;;;5030983;28;20578;-73
2022/01/27 03:53:22;;;;;;;40.35;13.85;;;6.40;99.90;;;;;;5033831;28;20112;-74
2022/01/27 03:55:48;;;;;;;35.97;14.40;;;6.40;99.90;;;;;;5014239;28;20026;-74
2022/01/27 03:58:14;;;;;;;44.30;14.98;;;6.50;99.90;;;;;;5032250;28;20038;-74
2022/01/27 04:00:40;;;;;;;35.88;13.70;;;6.50;99.90;;;;;;5020991;28;20050;-75
2022/01/27 04:03:11;;;;;;;44.00;13.00;;;6.60;99.90;;;;;;5027060;28;20488;-75
2022/01/27 04:05:41;;;;;;;36.80;13.23;;;6.60;99.90;;;;;;5029498;28;20455;-74
2022/01/27 04:08:12;;;;;;;42.60;12.88;;;6.60;99.90;;;;;;5033861;28;20029;-74
2022/01/27 04:10:38;;;;;;;36.17;14.10;;;6.70;99.90;;;;;;5019689;28;20149;-74
2022/01/27 04:13:06;;;;;;;31.23;12.90;;;6.70;99.90;;;;;;5013273;28;20033;-75
2022/01/27 04:15:32;;;;;;;40.00;13.68;;;6.70;99.90;;;;;;5028930;28;20064;-75
2022/01/27 04:17:58;;;;;;;35.40;13.02;;;6.80;99.90;;;;;;5024144;28;20022;-75
2022/01/27 04:20:23;;;;;;;43.33;14.35;;;6.80;99.90;;;;;;5013276;28;20495;-75
2022/01/27 04:22:49;;;;;;;33.53;13.27;;;6.90;99.90;;;;;;5028215;28;20382;-75
2022/01/27 04:25:15;;;;;;;37.00;13.35;;;6.90;99.90;;;;;;5032878;28;20021;-75
2022/01/27 04:27:46;;;;;;;37.22;12.65;;;7.00;99.90;;;;;;5032811;28;20041;-75
2022/01/27 04:30:18;;;;;;;37.97;13.18;;;7.00;99.90;;;;;;5033080;28;20029;-75
2022/01/27 04:32:51;;;;;;;37.17;12.52;;;7.00;99.90;;;;;;5032739;28;20395;-75
2022/01/27 04:35:20;;;;;;;33.88;12.60;;;7.10;99.90;;;;;;5015442;28;20511;-75
2022/01/27 04:40:28;;;;;;;33.22;12.80;;;7.10;99.90;;;;;;5013124;28;20033;-74
2022/01/27 04:43:02;;;;;;;34.53;11.68;;;7.10;99.90;;;;;;5012867;28;20538;-75
2022/01/27 04:45:35;;;;;;;39.30;12.73;;;7.10;99.90;;;;;;5032133;28;20025;-75
2022/01/27 04:48:10;;;;;;;32.10;11.52;;;7.20;99.90;;;;;;5012331;28;20412;-74
2022/01/27 04:50:35;;;;;;;35.65;12.18;;;7.20;99.90;;;;;;5013044;28;20033;-75
2022/01/27 04:53:04;;;;;;;37.22;13.00;;;7.20;99.90;;;;;;5013764;28;20022;-75
2022/01/27 04:55:30;;;;;;;35.50;11.93;;;7.20;99.90;;;;;;4999728;28;20030;-74
2022/01/27 04:58:07;;;;;;;43.38;13.30;;;7.20;99.90;;;;;;5031824;28;20033;-74
2022/01/27 05:00:33;;;;;;;32.28;12.02;;;7.20;99.90;;;;;;5016450;28;20570;-75
2022/01/27 05:03:01;;;;;;;45.13;12.75;;;7.20;99.90;;;;;;5011025;28;20018;-75
2022/01/27 05:05:26;;;;;;;41.63;12.60;;;7.30;99.90;;;;;;5026744;28;20379;-74
2022/01/27 05:07:58;;;;;;;41.00;12.93;;;7.30;99.90;;;;;;5032489;28;20040;-74
2022/01/27 05:10:29;;;;;;;36.58;12.38;;;7.30;99.90;;;;;;5015677;28;20033;-74
2022/01/27 05:13:12;;;;;;;41.28;12.25;;;7.30;99.90;;;;;;5012872;28;20026;-75
2022/01/27 05:15:43;;;;;;;39.10;12.05;;;7.40;99.90;;;;;;5028926;28;20045;-75
2022/01/27 05:18:09;;;;;;;30.42;11.60;;;7.40;99.90;;;;;;4996074;28;20034;-75
2022/01/27 05:20:35;;;;;;;37.17;11.80;;;7.40;99.90;;;;;;5027119;28;20026;-75
2022/01/27 05:23:00;;;;;;;34.05;12.43;;;7.40;99.90;;;;;;5031803;28;20437;-74
2022/01/27 05:25:26;;;;;;;40.03;11.50;;;7.40;99.90;;;;;;5021926;28;20065;-75
2022/01/27 05:27:52;;;;;;;41.05;11.57;;;7.40;99.90;;;;;;5016911;28;20519;-73
2022/01/27 05:30:18;;;;;;;31.33;11.38;;;7.50;99.90;;;;;;5022952;28;20029;-74
2022/01/27 05:32:43;;;;;;;39.55;11.90;;;7.50;99.90;;;;;;5031960;28;20468;-74
2022/01/27 05:35:09;;;;;;;40.72;11.98;;;7.50;99.90;;;;;;5013563;28;20021;-74
2022/01/27 05:37:34;;;;;;;35.70;11.60;;;7.50;99.90;;;;;;5024020;28;20315;-74
2022/01/27 05:40:00;;;;;;;36.83;12.95;;;7.50;99.90;;;;;;5023157;28;20025;-74
2022/01/27 05:42:26;;;;;;;36.38;11.32;;;7.60;99.90;;;;;;5011946;28;20478;-74
2022/01/27 05:44:51;;;;;;;36.22;11.68;;;7.60;99.90;;;;;;5012617;28;20125;-75
2022/01/27 05:47:17;;;;;;;29.20;11.32;;;7.60;99.90;;;;;;5011473;28;20018;-75
2022/01/27 05:49:42;;;;;;;33.15;11.57;;;7.60;99.90;;;;;;5036454;28;20030;-75
2022/01/27 05:52:08;;;;;;;37.83;12.35;;;7.60;99.90;;;;;;5031267;28;20057;-74
2022/01/27 05:54:34;;;;;;;36.28;11.80;;;7.60;99.90;;;;;;5031493;28;20030;-74
2022/01/27 05:57:00;;;;;;;31.30;11.20;;;7.70;99.90;;;;;;5050214;28;20409;-74
2022/01/27 05:59:26;;;;;;;36.30;11.40;;;7.70;99.90;;;;;;5051056;28;20021;-74
2022/01/27 06:01:51;;;;;;;36.00;11.85;;;7.70;99.90;;;;;;5050734;28;20542;-74
2022/01/27 06:04:17;;;;;;;38.95;10.98;;;7.70;99.90;;;;;;5050828;28;20497;-75
2022/01/27 06:06:44;;;;;;;36.70;11.73;;;7.70;99.90;;;;;;5050129;28;20118;-74
2022/01/27 06:09:10;;;;;;;40.75;10.75;;;7.70;99.90;;;;;;5048480;28;20021;-74
2022/01/27 06:11:36;;;;;;;37.53;11.00;;;7.70;99.90;;;;;;5048014;28;20500;-74
2022/01/27 06:14:02;;;;;;;35.13;10.90;;;7.70;99.90;;;;;;5052025;28;20035;-74
2022/01/27 06:16:27;;;;;;;35.85;11.32;;;7.70;99.90;;;;;;5035076;28;20018;-75
2022/01/27 06:18:53;;;;;;;37.58;11.32;;;7.70;99.90;;;;;;5036627;28;20120;-75
2022/01/27 06:21:19;;;;;;;37.17;11.20;;;7.80;99.90;;;;;;5036860;28;20048;-75
2022/01/27 06:23:44;;;;;;;36.72;11.10;;;7.80;99.90;;;;;;5040856;28;20017;-74
2022/01/27 06:26:10;;;;;;;35.08;10.95;;;7.80;99.90;;;;;;5005514;28;20463;-75
2022/01/27 06:28:35;;;;;;;33.15;10.68;;;7.80;99.90;;;;;;5034167;28;20037;-74
2022/01/27 06:31:01;;;;;;;35.40;10.55;;;7.80;99.90;;;;;;5038152;28;20438;-75
2022/01/27 06:33:27;;;;;;;38.35;11.10;;;7.80;99.90;;;;;;5000683;28;20025;-73
2022/01/27 06:35:52;;;;;;;34.15;11.27;;;7.80;99.90;;;;;;5029835;28;20454;-73
2022/01/27 06:38:18;;;;;;;35.10;11.65;;;7.80;99.90;;;;;;5037828;28;20490;-74
2022/01/27 06:40:44;;;;;;;32.30;11.15;;;7.80;99.90;;;;;;5037375;28;20096;-73
2022/01/27 06:43:13;;;;;;;36.42;11.77;;;7.90;99.90;;;;;;5026632;28;20025;-73
2022/01/27 06:45:38;;;;;;;35.90;10.98;;;7.90;99.90;;;;;;5027766;28;20049;-73
2022/01/27 06:48:04;;;;;;;36.38;11.25;;;7.90;99.90;;;;;;5003262;28;20498;-73
2022/01/27 06:50:31;;;;;;;41.22;11.82;;;7.90;99.90;;;;;;5032780;28;20029;-73
2022/01/27 06:52:58;;;;;;;32.90;11.15;;;7.90;99.90;;;;;;5036999;28;20025;-73
2022/01/27 06:55:23;;;;;;;38.60;11.38;;;7.90;99.90;;;;;;5025714;28;20483;-72
2022/01/27 06:57:50;;;;;;;37.33;10.75;;;7.90;99.90;;;;;;5012616;28;20037;-73
2022/01/27 07:00:16;;;;;;;37.72;11.68;;;7.90;99.90;;;;;;5021398;28;20549;-73
2022/01/27 07:02:43;;;;;;;42.33;10.60;;;7.90;99.90;;;;;;5026528;28;20064;-73
2022/01/27 07:05:09;;;;;;;39.22;11.40;;;8.00;99.90;;;;;;5019112;28;20039;-74
2022/01/27 07:07:35;;;;;;;35.55;11.93;;;8.00;99.90;;;;;;5039014;28;20049;-73
2022/01/27 07:10:00;;;;;;;38.28;12.10;;;8.00;99.90;;;;;;5030257;28;20101;-74
2022/01/27 07:12:26;;;;;;;35.92;11.20;;;8.00;99.90;;;;;;5036116;28;20029;-74
2022/01/27 07:14:54;;;;;;;32.70;11.82;;;8.00;99.90;;;;;;5037654;28;20445;-74
2022/01/27 07:17:20;;;;;;;32.65;11.38;;;8.00;99.90;;;;;;5033924;28;20333;-73
2022/01/27 07:19:46;;;;;;;31.02;10.85;;;7.90;99.90;;;;;;5039157;28;20017;-74
2022/01/27 07:22:11;;;;;;;43.13;11.80;;;7.90;99.90;;;;;;5039907;28;20028;-73
2022/01/27 07:24:37;;;;;;;33.15;12.60;;;7.90;99.90;;;;;;5042838;28;20028;-74
2022/01/27 07:27:03;;;;;;;38.38;13.05;;;7.90;99.90;;;;;;5036108;28;20026;-72
2022/01/27 07:29:29;;;;;;;36.63;12.15;;;7.80;99.90;;;;;;5050780;28;20100;-73
2022/01/27 07:31:54;;;;;;;42.03;12.68;;;7.80;99.90;;;;;;5046463;28;20028;-73
2022/01/27 07:34:20;;;;;;;41.55;12.98;;;7.80;99.90;;;;;;5049366;28;20060;-74
2022/01/27 07:36:46;;;;;;;36.00;12.25;;;7.80;99.90;;;;;;5035084;28;20056;-73
2022/01/27 07:39:16;;;;;;;39.75;12.60;;;7.80;99.90;;;;;;5040000;28;20025;-73
2022/01/27 07:41:44;;;;;;;38.88;12.20;;;7.80;99.90;;;;;;5040558;28;20063;-73
2022/01/27 07:44:10;;;;;;;42.63;12.45;;;7.80;99.90;;;;;;5040406;28;20025;-74
2022/01/27 07:46:36;;;;;;;39.90;13.23;;;7.80;99.90;;;;;;5043034;28;20040;-74
2022/01/27 07:49:01;;;;;;;42.42;11.98;;;7.80;99.90;;;;;;5048910;28;20033;-74
2022/01/27 07:51:27;;;;;;;36.58;11.73;;;7.80;99.90;;;;;;5035893;28;20429;-73
2022/01/27 07:53:53;;;;;;;38.00;13.02;;;7.80;99.90;;;;;;5048031;28;20028;-74
2022/01/27 07:56:18;;;;;;;40.58;11.65;;;7.80;99.90;;;;;;5047887;28;20476;-74
2022/01/27 07:58:44;;;;;;;38.67;12.43;;;7.80;99.90;;;;;;5038638;28;20562;-74
2022/01/27 08:01:10;;;;;;;43.30;12.63;;;7.80;99.90;;;;;;5043712;28;20426;-73
2022/01/27 08:03:39;;;;;;;39.42;12.60;;;7.80;99.90;;;;;;5035816;28;20399;-74
2022/01/27 08:06:06;;;;;;;36.70;12.68;;;7.80;99.90;;;;;;5043398;28;20033;-74
2022/01/27 08:08:32;;;;;;;40.38;11.93;;;7.80;99.90;;;;;;5043560;28;20029;-73
2022/01/27 08:10:58;;;;;;;34.03;11.95;;;7.80;99.90;;;;;;5036483;28;20044;-73
2022/01/27 08:13:24;;;;;;;39.47;12.27;;;7.90;99.90;;;;;;5040792;28;20108;-74
2022/01/27 08:15:50;;;;;;;40.00;12.88;;;7.80;99.90;;;;;;5032018;28;20017;-74
2022/01/27 08:18:15;;;;;;;43.05;12.52;;;7.90;99.90;;;;;;5037465;28;20083;-74
2022/01/27 08:20:41;;;;;;;40.15;11.88;;;7.80;99.90;;;;;;5038470;28;20029;-74
2022/01/27 08:23:07;;;;;;;44.22;12.52;;;7.90;99.90;;;;;;5035109;28;20028;-73
2022/01/27 08:25:34;;;;;;;41.30;12.02;;;7.90;99.90;;;;;;5013807;28;20518;-73
2022/01/27 08:28:03;;;;;;;39.25;12.00;;;7.90;99.90;;;;;;5030377;28;20637;-74
2022/01/27 08:30:36;;;;;;;39.22;12.85;;;7.90;99.90;;;;;;5004284;28;20068;-74
2022/01/27 08:33:05;;;;;;;37.53;13.20;;;7.90;99.90;;;;;;5033394;28;20112;-74
2022/01/27 08:35:31;;;;;;;46.50;12.10;;;7.90;99.90;;;;;;5021942;28;20037;-74
2022/01/27 08:37:57;;;;;;;36.38;11.57;;;7.90;99.90;;;;;;5033249;28;20026;-74
2022/01/27 08:40:23;;;;;;;40.58;11.93;;;7.90;99.90;;;;;;5032752;28;20376;-74
2022/01/27 08:42:48;;;;;;;38.95;12.13;;;7.90;99.90;;;;;;5013860;28;20033;-74
2022/01/27 08:45:17;;;;;;;37.72;11.18;;;8.00;99.90;;;;;;5013837;28;20037;-74
2022/01/27 08:47:44;;;;;;;37.70;11.65;;;8.00;99.90;;;;;;5013434;28;20056;-73
2022/01/27 08:50:11;;;;;;;36.92;11.60;;;8.00;99.90;;;;;;5012955;28;20030;-74
2022/01/27 08:52:37;;;;;;;40.33;12.23;;;8.00;99.90;;;;;;5031678;28;20535;-73
2022/01/27 08:55:04;;;;;;;41.45;12.27;;;8.00;99.90;;;;;;5039218;28;20116;-74
2022/01/27 08:57:30;;;;;;;39.70;12.43;;;8.00;99.90;;;;;;5032228;28;20036;-73
2022/01/27 08:59:56;;;;;;;43.33;11.93;;;8.00;99.90;;;;;;5032609;28;20025;-73
2022/01/27 09:02:22;;;;;;;41.63;12.60;;;8.00;99.90;;;;;;5016683;28;20491;-73
2022/01/27 09:04:48;;;;;;;35.65;12.75;;;8.00;99.90;;;;;;5012520;28;20029;-74
2022/01/27 09:07:15;;;;;;;38.92;11.88;;;8.10;99.90;;;;;;5035427;28;20037;-73
2022/01/27 09:09:42;;;;;;;37.35;11.10;;;8.10;99.90;;;;;;5034644;28;20100;-74
2022/01/27 09:12:08;;;;;;;42.15;11.50;;;8.10;99.90;;;;;;5031483;28;20040;-73
2022/01/27 09:14:34;;;;;;;40.55;11.82;;;8.10;99.90;;;;;;5047347;28;20033;-74
2022/01/27 09:17:00;;;;;;;44.40;11.63;;;8.10;99.90;;;;;;5049081;28;20029;-74
2022/01/27 09:19:27;;;;;;;45.30;12.88;;;8.10;99.90;;;;;;5052377;28;20039;-74
2022/01/27 09:21:56;;;;;;;35.50;11.77;;;8.10;99.90;;;;;;5041980;28;20052;-73
2022/01/27 09:24:37;;;;;;;40.72;11.68;;;8.10;99.90;;;;;;5018656;28;20109;-73
2022/01/27 09:27:02;;;;;;;33.53;10.95;;;8.10;99.90;;;;;;5019630;28;20032;-75
2022/01/27 09:29:28;;;;;;;38.38;10.90;;;8.20;99.90;;;;;;5037802;28;20494;-74
2022/01/27 09:31:55;;;;;;;31.88;10.32;;;8.20;99.90;;;;;;5040876;28;20068;-74
2022/01/27 09:34:20;;;;;;;36.58;12.30;;;8.20;99.90;;;;;;5042057;28;20036;-74
2022/01/27 09:36:47;;;;;;;32.53;11.05;;;8.20;99.90;;;;;;5035026;28;20041;-74
2022/01/27 09:39:14;;;;;;;35.67;10.63;;;8.30;99.90;;;;;;5038244;28;20053;-75
2022/01/27 09:41:41;;;;;;;33.90;9.27;;;8.30;99.90;;;;;;5022431;28;20025;-74
2022/01/27 09:44:12;;;;;;;34.20;9.75;;;8.30;99.90;;;;;;5022949;28;20063;-74
2022/01/27 09:46:41;;;;;;;30.85;10.00;;;8.40;99.90;;;;;;5043047;28;20116;-74
2022/01/27 09:49:13;;;;;;;30.65;9.30;;;8.40;99.90;;;;;;5043237;28;20374;-74
2022/01/27 09:51:43;;;;;;;38.38;9.95;;;8.40;99.90;;;;;;4989832;28;20783;-75
2022/01/27 09:54:09;;;;;;;32.30;10.13;;;8.40;99.90;;;;;;5044324;28;20033;-74
2022/01/27 09:56:35;;;;;;;28.92;9.07;;;8.50;99.90;;;;;;5037801;28;20027;-74
2022/01/27 09:59:02;;;;;;;30.98;9.90;;;8.50;99.90;;;;;;5040815;28;20478;-74
2022/01/27 10:01:28;;;;;;;28.67;8.45;;;8.50;99.90;;;;;;5042618;28;20079;-74
2022/01/27 10:03:54;;;;;;;35.90;10.05;;;8.50;99.90;;;;;;5044225;28;20048;-74
2022/01/27 10:06:21;;;;;;;30.75;9.30;;;8.60;99.90;;;;;;5034269;28;20246;-74
2022/01/27 10:09:11;;;;;;;30.50;8.70;;;8.60;99.90;;;;;;5031805;28;20055;-74
2022/01/27 10:11:37;;;;;;;28.42;8.98;;;8.60;99.90;;;;;;5012528;28;20033;-74
2022/01/27 10:14:15;;;;;;;28.38;8.02;;;8.60;99.90;;;;;;5019000;28;20047;-75
2022/01/27 10:16:42;;;;;;;28.73;7.88;;;8.70;99.90;;;;;;5030264;28;20351;-74
2022/01/27 10:19:09;;;;;;;33.00;8.45;;;8.70;99.90;;;;;;5021738;28;20458;-75
2022/01/27 10:21:37;;;;;;;29.33;7.75;;;8.70;99.90;;;;;;5031848;28;20027;-74
2022/01/27 10:24:15;;;;;;;29.88;7.35;;;8.80;99.90;;;;;;5033969;28;20051;-74
2022/01/27 10:26:44;;;;;;;25.75;7.78;;;8.80;99.90;;;;;;5037345;28;20494;-74
2022/01/27 10:29:17;;;;;;;23.33;7.88;;;8.80;99.90;;;;;;5035158;28;20096;-74
2022/01/27 10:31:44;;;;;;;30.77;8.23;;;8.80;99.90;;;;;;5041743;28;20145;-74
2022/01/27 10:34:15;;;;;;;24.02;7.97;;;8.80;99.90;;;;;;5039292;28;20528;-74
2022/01/27 10:36:44;;;;;;;29.05;7.47;;;8.90;99.90;;;;;;5041301;28;20013;-74
2022/01/27 10:39:15;;;;;;;28.42;7.30;;;8.90;99.90;;;;;;5035390;28;20025;-74
2022/01/27 10:41:56;;;;;;;34.60;7.35;;;8.90;99.90;;;;;;5032785;28;20108;-74
2022/01/27 10:44:23;;;;;;;30.92;7.25;;;8.90;99.90;;;;;;5038905;28;20021;-74
2022/01/27 10:47:11;;;;;;;32.85;8.20;;;8.90;99.90;;;;;;5043930;28;20041;-74
2022/01/27 10:49:43;;;;;;;32.63;8.05;;;9.00;99.90;;;;;;5042982;28;20029;-74
2022/01/27 10:52:16;;;;;;;28.60;7.25;;;9.00;99.90;;;;;;5033810;28;20074;-74
2022/01/27 10:54:49;;;;;;;23.52;7.18;;;9.00;99.90;;;;;;5036613;28;20441;-74
2022/01/27 10:57:15;;;;;;;24.85;7.53;;;9.00;99.90;;;;;;5040180;28;20024;-74
2022/01/27 10:59:42;;;;;;;28.92;7.35;;;9.00;99.90;;;;;;5042162;28;20101;-74
2022/01/27 11:02:12;;;;;;;29.17;7.40;;;9.00;99.90;;;;;;5022515;28;20046;-74
2022/01/27 11:04:40;;;;;;;29.90;7.47;;;9.00;99.90;;;;;;5020520;28;20467;-74
2022/01/27 11:07:09;;;;;;;26.83;7.20;;;9.00;99.90;;;;;;5021085;28;20458;-74
2022/01/27 11:09:42;;;;;;;28.83;7.28;;;9.00;99.90;;;;;;5021646;28;20105;-73
2022/01/27 11:12:14;;;;;;;24.48;6.88;;;9.10;99.90;;;;;;5022195;28;20044;-74
2022/01/27 11:14:41;;;;;;;28.25;7.10;;;9.10;99.90;;;;;;5016834;28;20026;-74
2022/01/27 11:17:17;;;;;;;22.15;6.35;;;9.10;99.90;;;;;;5024167;28;20056;-75
2022/01/27 11:27:32;;;;;;;29.77;7.03;;;9.20;99.90;;;;;;5013064;28;20037;-75
2022/01/27 11:30:04;;;;;;;27.88;6.82;;;9.20;99.90;;;;;;5017702;28;20026;-75
2022/01/27 11:32:38;;;;;;;26.42;7.03;;;9.20;99.90;;;;;;5011620;28;20041;-75
2022/01/27 11:35:17;;;;;;;29.40;6.93;;;9.30;99.90;;;;;;5025379;28;20037;-75
2022/01/27 11:37:52;;;;;;;30.13;7.40;;;9.30;99.90;;;;;;5016540;28;20037;-74
2022/01/27 11:40:20;;;;;;;27.13;7.10;;;9.30;99.90;;;;;;5031434;28;20022;-74
2022/01/27 11:42:54;;;;;;;31.92;6.75;;;9.30;99.90;;;;;;5026344;28;20042;-74
2022/01/27 11:45:23;;;;;;;21.42;6.45;;;9.40;99.90;;;;;;5018999;28;20045;-74
2022/01/27 11:47:51;;;;;;;29.50;6.95;;;9.40;99.90;;;;;;5025086;28;20088;-73
2022/01/27 11:50:33;;;;;;;19.15;6.45;;;9.50;99.90;;;;;;5021626;28;20345;-74
2022/01/27 11:53:03;;;;;;;24.52;6.10;;;9.50;99.90;;;;;;5023454;28;20049;-74
2022/01/27 11:55:29;;;;;;;20.95;6.43;;;9.60;99.90;;;;;;5035271;28;20108;-74
2022/01/27 11:57:56;;;;;;;22.42;5.72;;;9.60;99.90;;;;;;5036413;28;20056;-74
2022/01/27 12:00:26;;;;;;;25.58;6.50;;;9.60;99.90;;;;;;5050872;28;20045;-75
2022/01/27 12:03:13;;;;;;;22.70;5.70;;;9.70;99.90;;;;;;5052041;28;20032;-74
2022/01/27 12:05:45;;;;;;;23.23;6.07;;;9.70;99.90;;;;;;5048615;28;20030;-75
2022/01/27 12:08:16;;;;;;;24.52;6.20;;;9.70;99.90;;;;;;5040904;28;20041;-76
2022/01/27 12:10:46;;;;;;;25.75;5.60;;;9.70;99.90;;;;;;5039740;28;20029;-76
2022/01/27 12:18:59;;;;;;;20.30;6.18;;;9.70;99.90;;;;;;5036160;28;20080;-75
2022/01/27 12:21:35;;;;;;;18.55;6.20;;;9.70;99.90;;;;;;5039004;28;20021;-75
2022/01/27 12:24:33;;;;;;;19.38;5.32;;;9.60;99.90;;;;;;5041937;28;20032;-75
2022/01/27 12:27:19;;;;;;;27.27;6.20;;;9.70;99.90;;;;;;5034976;28;20482;-73
2022/01/27 12:29:48;;;;;;;;;;;9.70;99.90;;;;;;5033631;28;20086;-73
2022/01/27 12:32:17;;;;;;;22.95;5.65;;;9.70;99.90;;;;;;5038939;28;19913;-74
2022/01/27 12:34:57;;;;;;;19.92;5.80;;;9.70;99.90;;;;;;5035640;28;20099;-73
2022/01/27 12:37:25;;;;;;;18.13;5.50;;;9.80;99.90;;;;;;5032733;28;20033;-73
2022/01/27 12:39:58;;;;;;;15.18;4.93;;;9.90;99.90;;;;;;5032542;28;20491;-75
2022/01/27 12:42:31;;;;;;;22.15;5.53;;;9.90;99.90;;;;;;5037997;28;20048;-75
2022/01/27 12:44:59;;;;;;;15.13;5.03;;;10.00;99.90;;;;;;5038808;28;20022;-75
2022/01/27 12:47:26;;;;;;;18.15;5.13;;;10.00;99.90;;;;;;5035221;28;20034;-75
2022/01/27 12:50:05;;;;;;;28.55;6.00;;;10.10;99.90;;;;;;5043859;28;20393;-75
2022/01/27 12:52:37;;;;;;;21.05;5.32;;;10.10;99.90;;;;;;5038713;28;20063;-75
2022/01/27 12:55:04;;;;;;;21.88;5.13;;;10.10;99.90;;;;;;5042958;28;20418;-75
2022/01/27 12:57:32;;;;;;;20.13;5.88;;;10.10;99.90;;;;;;5046221;28;20071;-77
2022/01/27 12:59:59;;;;;;;19.58;5.40;;;10.10;99.90;;;;;;5038444;28;20136;-75
2022/01/27 13:02:27;;;;;;;21.10;5.22;;;10.10;99.90;;;;;;5042678;28;20475;-75
2022/01/27 13:04:54;;;;;;;19.67;5.03;;;10.10;99.90;;;;;;5038618;28;20383;-76
2022/01/27 13:07:21;;;;;;;17.20;5.20;;;10.10;99.90;;;;;;5037678;28;20414;-76
2022/01/27 13:10:08;;;;;;;19.27;4.97;;;10.20;99.90;;;;;;5031222;28;20026;-75
2022/01/27 13:12:42;;;;;;;15.30;4.90;;;10.20;99.90;;;;;;5032168;28;20029;-75
2022/01/27 13:15:14;;;;;;;20.38;4.97;;;10.10;99.90;;;;;;5037590;28;20095;-75
2022/01/27 13:17:57;;;;;;;19.98;4.35;;;10.10;99.90;;;;;;5048812;28;20541;-74
2022/01/27 13:20:32;;;;;;;19.58;4.18;;;10.10;99.90;;;;;;5046315;28;20025;-74
2022/01/27 13:23:08;;;;;;;21.92;4.55;;;10.10;99.90;;;;;;5033727;28;20061;-75
2022/01/27 13:25:40;;;;;;;22.38;4.60;;;10.10;99.90;;;;;;5031669;28;20101;-75
2022/01/27 13:28:22;;;;;;;17.05;4.70;;;10.10;99.90;;;;;;5029855;28;20037;-75
2022/01/27 13:30:50;;;;;;;19.90;5.03;;;10.10;99.90;;;;;;5035304;28;20493;-73
2022/01/27 13:33:18;;;;;;;18.80;4.93;;;10.10;99.90;;;;;;5033250;28;20052;-73
2022/01/27 13:35:44;;;;;;;19.58;4.30;;;10.10;99.90;;;;;;5031334;28;20052;-74